Aviation Digital Data Service (ADDS)

Output produced by METARs form (1059 UTC 24 November 2017)
found at http://www.aviationweather.gov/adds/metars/
 
KORD 240838Z 2409/2512 21008KT P6SM FEW250 
     FM241300 20013G21KT P6SM SCT180 
     FM241800 20017G29KT P6SM SCT080 SCT120 
     FM250100 24014KT P6SM SCT080 BKN120 
     FM250500 31014G22KT P6SM FEW250